This is the latest recevied weather packets stored in our database for station/object DB0ADS-6. If no packets are shown the sender has not sent any weather packets the latest 10 day(s).
| Time | Temp. | Humidity | Pressure | Rain* | Wind** | Luminosity | Snow |
|---|---|---|---|---|---|---|---|
| 1777937762 | 15° C | 68% | 1009.8 hPa | 0 mm | - | - | - |
| 1777937460 | 15° C | 67% | 1009.8 hPa | 0 mm | - | - | - |
| 1777928468 | 16.67° C | 60% | 1010.4 hPa | 0 mm | - | - | - |
| 1777927566 | 16.67° C | 59% | 1010.5 hPa | 0 mm | - | - | - |
| 1777926356 | 17.22° C | 58% | 1010.6 hPa | 0 mm | - | - | - |
| 1777926054 | 17.22° C | 58% | 1010.6 hPa | 0 mm | - | - | - |
| 1777924850 | 17.22° C | 57% | 1010.3 hPa | 0 mm | - | - | - |
| 1777924244 | 17.22° C | 58% | 1010.1 hPa | 0 mm | - | - | - |
| 1777921226 | 17.22° C | 58% | 1010 hPa | 0 mm | - | - | - |
| 1777920019 | 17.22° C | 58% | 1010.1 hPa | 0 mm | - | - | - |
| 1777919717 | 17.78° C | 57% | 1010.1 hPa | 0 mm | - | - | - |
| 1777918873 | 18.33° C | 53% | 1010.2 hPa | 0 mm | - | - | - |
| 1777917667 | 18.33° C | 51% | 1010.1 hPa | 0 mm | - | - | - |
| 1777917063 | 18.89° C | 50% | 1010.1 hPa | 0 mm | - | - | - |
| 1777913742 | 19.44° C | 47% | 1010.2 hPa | 0 mm | - | - | - |
| 1777911932 | 20° C | 45% | 1010.3 hPa | 0 mm | - | - | - |
| 1777910122 | 20° C | 43% | 1010.3 hPa | 0 mm | - | - | - |
| 1777908975 | 20.56° C | 44% | 1010.1 hPa | 0 mm | - | - | - |
| 1777908693 | 20.56° C | 44% | 1010.3 hPa | 0 mm | - | - | - |
| 1777905958 | 21.11° C | 42% | 1010.8 hPa | 0 mm | - | - | - |
| 1777904751 | 20.56° C | 41% | 1011 hPa | 0 mm | - | - | - |
| 1777903853 | 21.11° C | 41% | 1010.9 hPa | 0 mm | - | - | - |
| 1777902940 | 21.67° C | 41% | 1011 hPa | 0 mm | - | - | - |
| 1777901150 | 21.11° C | 40% | 1011.2 hPa | 0 mm | - | - | - |
| 1777900828 | 21.67° C | 39% | 1011.1 hPa | 0 mm | - | - | - |
* Rain latest hour (hover to see other rain measurements)
** Current wind speed in m/s (hover to see current wind gust speed)